Terminal Aerodrome Forecast
Issued by NWS

Home | Current Version | Previous Version | Text Only | Print | Product List | Glossary On
Versions: 1 2 3 4 5 6 7 8 9 10 11 12 13 14
000
FTUS46 KMFR 280541
TAFLMT
TAF
KLMT 280541Z 2806/2906 VRB03KT 5SM FU HZ BKN200
     FM282000 21015G25KT P6SM BKN200
     FM290400 18010KT P6SM SCT040 OVC100=

USA.gov is the U.S. government's official web portal to all federal, state and local government web resources and services.